sensor_id;sensor_type;location;lat;lon;timestamp;temperature;humidity
19138;DHT22;68178;52.188;5.598;2023-04-16T00:02:03;9.70;99.90
19138;DHT22;68178;52.188;5.598;2023-04-16T00:04:29;9.70;99.90
19138;DHT22;68178;52.188;5.598;2023-04-16T00:06:54;9.70;99.90
19138;DHT22;68178;52.188;5.598;2023-04-16T00:09:20;9.70;99.90
19138;DHT22;68178;52.188;5.598;2023-04-16T00:11:46;9.70;99.90
19138;DHT22;68178;52.188;5.598;2023-04-16T00:14:14;9.70;99.90
19138;DHT22;68178;52.188;5.598;2023-04-16T00:16:39;9.70;99.90
19138;DHT22;68178;52.188;5.598;2023-04-16T00:19:05;9.70;99.90
19138;DHT22;68178;52.188;5.598;2023-04-16T00:21:30;9.60;99.90
19138;DHT22;68178;52.188;5.598;2023-04-16T00:23:56;9.80;99.90
19138;DHT22;68178;52.188;5.598;2023-04-16T00:26:21;9.70;99.90
19138;DHT22;68178;52.188;5.598;2023-04-16T00:28:47;9.70;99.90
19138;DHT22;68178;52.188;5.598;2023-04-16T00:31:12;9.70;99.90
19138;DHT22;68178;52.188;5.598;2023-04-16T00:33:38;9.70;99.90
19138;DHT22;68178;52.188;5.598;2023-04-16T00:36:04;9.60;99.90
19138;DHT22;68178;52.188;5.598;2023-04-16T00:38:29;9.70;99.90
19138;DHT22;68178;52.188;5.598;2023-04-16T00:40:57;9.70;99.90
19138;DHT22;68178;52.188;5.598;2023-04-16T00:43:25;9.70;99.90
19138;DHT22;68178;52.188;5.598;2023-04-16T00:45:52;9.70;99.90
19138;DHT22;68178;52.188;5.598;2023-04-16T00:48:19;9.80;99.90
19138;DHT22;68178;52.188;5.598;2023-04-16T00:50:45;9.80;99.90
19138;DHT22;68178;52.188;5.598;2023-04-16T00:53:13;9.80;99.90
19138;DHT22;68178;52.188;5.598;2023-04-16T00:55:39;9.70;99.90
19138;DHT22;68178;52.188;5.598;2023-04-16T00:58:05;9.70;99.90
19138;DHT22;68178;52.188;5.598;2023-04-16T01:00:31;9.80;99.90
19138;DHT22;68178;52.188;5.598;2023-04-16T01:02:57;9.70;99.90
19138;DHT22;68178;52.188;5.598;2023-04-16T01:05:24;9.80;99.90
19138;DHT22;68178;52.188;5.598;2023-04-16T01:07:51;9.80;99.90
19138;DHT22;68178;52.188;5.598;2023-04-16T01:10:16;9.80;99.90
19138;DHT22;68178;52.188;5.598;2023-04-16T01:12:42;9.70;99.90
19138;DHT22;68178;52.188;5.598;2023-04-16T01:15:09;9.70;99.90
19138;DHT22;68178;52.188;5.598;2023-04-16T01:17:35;9.80;99.90
19138;DHT22;68178;52.188;5.598;2023-04-16T01:20:01;9.80;99.90
19138;DHT22;68178;52.188;5.598;2023-04-16T01:22:27;9.80;99.90
19138;DHT22;68178;52.188;5.598;2023-04-16T01:24:53;9.70;99.90
19138;DHT22;68178;52.188;5.598;2023-04-16T01:27:18;9.70;99.90
19138;DHT22;68178;52.188;5.598;2023-04-16T01:29:44;9.80;99.90
19138;DHT22;68178;52.188;5.598;2023-04-16T01:32:11;9.90;99.90
19138;DHT22;68178;52.188;5.598;2023-04-16T01:34:36;9.80;99.90
19138;DHT22;68178;52.188;5.598;2023-04-16T01:37:02;9.80;99.90
19138;DHT22;68178;52.188;5.598;2023-04-16T01:39:28;9.80;99.90
19138;DHT22;68178;52.188;5.598;2023-04-16T01:41:54;9.90;99.90
19138;DHT22;68178;52.188;5.598;2023-04-16T01:44:19;10.00;99.90
19138;DHT22;68178;52.188;5.598;2023-04-16T01:46:47;9.90;99.90
19138;DHT22;68178;52.188;5.598;2023-04-16T01:49:13;9.90;99.90
19138;DHT22;68178;52.188;5.598;2023-04-16T01:51:38;9.90;99.90
19138;DHT22;68178;52.188;5.598;2023-04-16T01:54:04;9.90;99.90
19138;DHT22;68178;52.188;5.598;2023-04-16T01:56:29;9.90;99.90
19138;DHT22;68178;52.188;5.598;2023-04-16T01:58:55;10.00;99.90
19138;DHT22;68178;52.188;5.598;2023-04-16T02:01:20;10.00;99.90
19138;DHT22;68178;52.188;5.598;2023-04-16T02:03:46;9.90;99.90
19138;DHT22;68178;52.188;5.598;2023-04-16T02:06:12;10.00;99.90
19138;DHT22;68178;52.188;5.598;2023-04-16T02:08:37;10.00;99.90
19138;DHT22;68178;52.188;5.598;2023-04-16T02:11:03;9.80;99.90
19138;DHT22;68178;52.188;5.598;2023-04-16T02:13:28;9.90;99.90
19138;DHT22;68178;52.188;5.598;2023-04-16T02:15:54;9.90;99.90
19138;DHT22;68178;52.188;5.598;2023-04-16T02:18:19;9.90;99.90
19138;DHT22;68178;52.188;5.598;2023-04-16T02:20:46;9.90;99.90
19138;DHT22;68178;52.188;5.598;2023-04-16T02:23:12;9.90;99.90
19138;DHT22;68178;52.188;5.598;2023-04-16T02:25:44;9.90;99.90
19138;DHT22;68178;52.188;5.598;2023-04-16T02:28:11;9.90;99.90
19138;DHT22;68178;52.188;5.598;2023-04-16T02:30:38;9.90;99.90
19138;DHT22;68178;52.188;5.598;2023-04-16T02:33:05;9.80;99.90
19138;DHT22;68178;52.188;5.598;2023-04-16T02:35:32;9.80;99.90
19138;DHT22;68178;52.188;5.598;2023-04-16T02:37:58;9.90;99.90
19138;DHT22;68178;52.188;5.598;2023-04-16T02:40:26;9.80;99.90
19138;DHT22;68178;52.188;5.598;2023-04-16T02:42:53;9.80;99.90
19138;DHT22;68178;52.188;5.598;2023-04-16T02:45:22;9.80;99.90
19138;DHT22;68178;52.188;5.598;2023-04-16T02:47:49;9.90;99.90
19138;DHT22;68178;52.188;5.598;2023-04-16T02:50:15;10.00;99.90
19138;DHT22;68178;52.188;5.598;2023-04-16T02:52:41;9.90;99.90
19138;DHT22;68178;52.188;5.598;2023-04-16T02:55:10;9.90;99.90
19138;DHT22;68178;52.188;5.598;2023-04-16T02:57:35;10.10;99.90
19138;DHT22;68178;52.188;5.598;2023-04-16T03:00:01;9.90;99.90
19138;DHT22;68178;52.188;5.598;2023-04-16T03:02:28;9.90;99.90
19138;DHT22;68178;52.188;5.598;2023-04-16T03:04:54;9.90;99.90
19138;DHT22;68178;52.188;5.598;2023-04-16T03:07:19;9.90;99.90
19138;DHT22;68178;52.188;5.598;2023-04-16T03:09:45;9.80;99.90
19138;DHT22;68178;52.188;5.598;2023-04-16T03:12:11;9.80;99.90
19138;DHT22;68178;52.188;5.598;2023-04-16T03:14:37;9.90;99.90
19138;DHT22;68178;52.188;5.598;2023-04-16T03:17:02;9.90;99.90
19138;DHT22;68178;52.188;5.598;2023-04-16T03:19:28;9.90;99.90
19138;DHT22;68178;52.188;5.598;2023-04-16T03:21:53;9.80;99.90
19138;DHT22;68178;52.188;5.598;2023-04-16T03:24:19;9.90;99.90
19138;DHT22;68178;52.188;5.598;2023-04-16T03:26:44;10.00;99.90
19138;DHT22;68178;52.188;5.598;2023-04-16T03:29:10;9.90;99.90
19138;DHT22;68178;52.188;5.598;2023-04-16T03:31:35;9.90;99.90
19138;DHT22;68178;52.188;5.598;2023-04-16T03:34:01;10.00;99.90
19138;DHT22;68178;52.188;5.598;2023-04-16T03:36:26;9.80;99.90
19138;DHT22;68178;52.188;5.598;2023-04-16T03:38:52;9.90;99.90
19138;DHT22;68178;52.188;5.598;2023-04-16T03:41:18;9.90;99.90
19138;DHT22;68178;52.188;5.598;2023-04-16T03:43:43;9.80;99.90
19138;DHT22;68178;52.188;5.598;2023-04-16T03:46:09;9.80;99.90
19138;DHT22;68178;52.188;5.598;2023-04-16T03:48:34;9.80;99.90
19138;DHT22;68178;52.188;5.598;2023-04-16T03:51:01;9.80;99.90
19138;DHT22;68178;52.188;5.598;2023-04-16T03:53:26;9.80;99.90
19138;DHT22;68178;52.188;5.598;2023-04-16T03:55:52;9.80;99.90
19138;DHT22;68178;52.188;5.598;2023-04-16T03:58:18;9.80;99.90
19138;DHT22;68178;52.188;5.598;2023-04-16T04:00:43;9.80;99.90
19138;DHT22;68178;52.188;5.598;2023-04-16T04:03:09;9.90;99.90
19138;DHT22;68178;52.188;5.598;2023-04-16T04:05:42;9.90;99.90
19138;DHT22;68178;52.188;5.598;2023-04-16T04:08:08;9.90;99.90
19138;DHT22;68178;52.188;5.598;2023-04-16T04:10:34;9.80;99.90
19138;DHT22;68178;52.188;5.598;2023-04-16T04:13:02;9.80;99.90
19138;DHT22;68178;52.188;5.598;2023-04-16T04:15:28;9.80;99.90
19138;DHT22;68178;52.188;5.598;2023-04-16T04:17:53;9.80;99.90
19138;DHT22;68178;52.188;5.598;2023-04-16T04:20:19;9.80;99.90
19138;DHT22;68178;52.188;5.598;2023-04-16T04:22:45;9.90;99.90
19138;DHT22;68178;52.188;5.598;2023-04-16T04:25:10;9.80;99.90
19138;DHT22;68178;52.188;5.598;2023-04-16T04:27:36;9.70;99.90
19138;DHT22;68178;52.188;5.598;2023-04-16T04:30:02;9.80;99.90
19138;DHT22;68178;52.188;5.598;2023-04-16T04:32:29;9.80;99.90
19138;DHT22;68178;52.188;5.598;2023-04-16T04:34:55;9.80;99.90
19138;DHT22;68178;52.188;5.598;2023-04-16T04:37:23;9.80;99.90
19138;DHT22;68178;52.188;5.598;2023-04-16T04:39:48;9.80;99.90
19138;DHT22;68178;52.188;5.598;2023-04-16T04:42:16;9.70;99.90
19138;DHT22;68178;52.188;5.598;2023-04-16T04:44:43;9.70;99.90
19138;DHT22;68178;52.188;5.598;2023-04-16T04:47:08;9.80;99.90
19138;DHT22;68178;52.188;5.598;2023-04-16T04:49:34;9.80;99.90
19138;DHT22;68178;52.188;5.598;2023-04-16T04:52:00;9.90;99.90
19138;DHT22;68178;52.188;5.598;2023-04-16T04:54:27;9.90;99.90
19138;DHT22;68178;52.188;5.598;2023-04-16T04:56:52;9.90;99.90
19138;DHT22;68178;52.188;5.598;2023-04-16T04:59:19;9.90;99.90
19138;DHT22;68178;52.188;5.598;2023-04-16T05:01:45;9.90;99.90
19138;DHT22;68178;52.188;5.598;2023-04-16T05:04:10;9.90;99.90
19138;DHT22;68178;52.188;5.598;2023-04-16T05:06:36;9.90;99.90
19138;DHT22;68178;52.188;5.598;2023-04-16T05:09:02;9.90;99.90
19138;DHT22;68178;52.188;5.598;2023-04-16T05:11:28;9.90;99.90
19138;DHT22;68178;52.188;5.598;2023-04-16T05:13:53;9.90;99.90
19138;DHT22;68178;52.188;5.598;2023-04-16T05:16:19;9.90;99.90
19138;DHT22;68178;52.188;5.598;2023-04-16T05:18:44;10.00;99.90
19138;DHT22;68178;52.188;5.598;2023-04-16T05:21:10;9.90;99.90
19138;DHT22;68178;52.188;5.598;2023-04-16T05:23:36;9.90;99.90
19138;DHT22;68178;52.188;5.598;2023-04-16T05:26:01;9.90;99.90
19138;DHT22;68178;52.188;5.598;2023-04-16T05:28:27;9.90;99.90
19138;DHT22;68178;52.188;5.598;2023-04-16T05:30:52;10.00;99.90
19138;DHT22;68178;52.188;5.598;2023-04-16T05:33:18;10.10;99.90
19138;DHT22;68178;52.188;5.598;2023-04-16T05:35:43;10.00;99.90
19138;DHT22;68178;52.188;5.598;2023-04-16T05:38:09;9.90;99.90
19138;DHT22;68178;52.188;5.598;2023-04-16T05:40:35;10.00;99.90
19138;DHT22;68178;52.188;5.598;2023-04-16T05:43:00;9.90;99.90
19138;DHT22;68178;52.188;5.598;2023-04-16T05:45:26;9.90;99.90
19138;DHT22;68178;52.188;5.598;2023-04-16T05:47:51;10.00;99.90
19138;DHT22;68178;52.188;5.598;2023-04-16T05:50:17;9.90;99.90
19138;DHT22;68178;52.188;5.598;2023-04-16T05:52:42;10.00;99.90
19138;DHT22;68178;52.188;5.598;2023-04-16T05:55:08;10.00;99.90
19138;DHT22;68178;52.188;5.598;2023-04-16T05:57:34;10.10;99.90
19138;DHT22;68178;52.188;5.598;2023-04-16T06:00:00;10.10;99.90
19138;DHT22;68178;52.188;5.598;2023-04-16T06:02:25;10.10;99.90
19138;DHT22;68178;52.188;5.598;2023-04-16T06:04:51;10.00;99.90
19138;DHT22;68178;52.188;5.598;2023-04-16T06:07:16;10.10;99.90
19138;DHT22;68178;52.188;5.598;2023-04-16T06:09:42;10.10;99.90
19138;DHT22;68178;52.188;5.598;2023-04-16T06:12:08;10.10;99.90
19138;DHT22;68178;52.188;5.598;2023-04-16T06:14:34;10.10;99.90
19138;DHT22;68178;52.188;5.598;2023-04-16T06:17:00;10.00;99.90
19138;DHT22;68178;52.188;5.598;2023-04-16T06:19:25;10.10;99.90
19138;DHT22;68178;52.188;5.598;2023-04-16T06:21:54;10.10;99.90
19138;DHT22;68178;52.188;5.598;2023-04-16T06:24:19;10.10;99.90
19138;DHT22;68178;52.188;5.598;2023-04-16T06:26:45;10.20;99.90
19138;DHT22;68178;52.188;5.598;2023-04-16T06:29:10;10.20;99.90
19138;DHT22;68178;52.188;5.598;2023-04-16T06:31:36;10.20;99.90
19138;DHT22;68178;52.188;5.598;2023-04-16T06:34:02;10.20;99.90
19138;DHT22;68178;52.188;5.598;2023-04-16T06:36:27;10.20;99.90
19138;DHT22;68178;52.188;5.598;2023-04-16T06:38:53;10.20;99.90
19138;DHT22;68178;52.188;5.598;2023-04-16T06:41:22;10.20;99.90
19138;DHT22;68178;52.188;5.598;2023-04-16T06:43:49;10.20;99.90
19138;DHT22;68178;52.188;5.598;2023-04-16T06:46:15;10.20;99.90
19138;DHT22;68178;52.188;5.598;2023-04-16T06:48:40;10.30;99.90
19138;DHT22;68178;52.188;5.598;2023-04-16T06:51:06;10.40;99.90
19138;DHT22;68178;52.188;5.598;2023-04-16T06:53:32;10.50;99.90
19138;DHT22;68178;52.188;5.598;2023-04-16T06:55:57;10.40;99.90
19138;DHT22;68178;52.188;5.598;2023-04-16T06:58:23;10.40;99.90
19138;DHT22;68178;52.188;5.598;2023-04-16T07:00:48;10.30;99.90
19138;DHT22;68178;52.188;5.598;2023-04-16T07:03:14;10.30;99.90
19138;DHT22;68178;52.188;5.598;2023-04-16T07:05:40;10.40;99.90
19138;DHT22;68178;52.188;5.598;2023-04-16T07:08:05;10.50;99.90
19138;DHT22;68178;52.188;5.598;2023-04-16T07:10:31;10.60;99.90
19138;DHT22;68178;52.188;5.598;2023-04-16T07:12:57;10.40;99.90
19138;DHT22;68178;52.188;5.598;2023-04-16T07:15:26;10.30;99.90
19138;DHT22;68178;52.188;5.598;2023-04-16T07:17:51;10.30;99.90
19138;DHT22;68178;52.188;5.598;2023-04-16T07:20:17;10.40;99.90
19138;DHT22;68178;52.188;5.598;2023-04-16T07:22:42;10.50;99.90
19138;DHT22;68178;52.188;5.598;2023-04-16T07:25:08;10.50;99.90
19138;DHT22;68178;52.188;5.598;2023-04-16T07:27:34;10.60;99.90
19138;DHT22;68178;52.188;5.598;2023-04-16T07:29:59;10.50;99.90
19138;DHT22;68178;52.188;5.598;2023-04-16T07:32:25;10.50;99.90
19138;DHT22;68178;52.188;5.598;2023-04-16T07:34:50;10.60;99.90
19138;DHT22;68178;52.188;5.598;2023-04-16T07:37:16;10.60;99.90
19138;DHT22;68178;52.188;5.598;2023-04-16T07:39:41;10.60;99.90
19138;DHT22;68178;52.188;5.598;2023-04-16T07:42:07;10.60;99.90
19138;DHT22;68178;52.188;5.598;2023-04-16T07:44:32;10.70;99.90
19138;DHT22;68178;52.188;5.598;2023-04-16T07:46:58;10.60;99.90
19138;DHT22;68178;52.188;5.598;2023-04-16T07:49:23;10.60;99.90
19138;DHT22;68178;52.188;5.598;2023-04-16T07:51:49;10.60;99.90
19138;DHT22;68178;52.188;5.598;2023-04-16T07:54:15;10.70;99.90
19138;DHT22;68178;52.188;5.598;2023-04-16T07:56:40;10.70;99.90
19138;DHT22;68178;52.188;5.598;2023-04-16T07:59:06;10.70;99.90
19138;DHT22;68178;52.188;5.598;2023-04-16T08:01:31;10.70;99.90
19138;DHT22;68178;52.188;5.598;2023-04-16T08:03:57;10.60;99.90
19138;DHT22;68178;52.188;5.598;2023-04-16T08:06:23;10.80;99.90
19138;DHT22;68178;52.188;5.598;2023-04-16T08:08:51;10.90;99.90
19138;DHT22;68178;52.188;5.598;2023-04-16T08:11:16;10.90;99.90
19138;DHT22;68178;52.188;5.598;2023-04-16T08:13:42;10.90;99.90
19138;DHT22;68178;52.188;5.598;2023-04-16T08:16:07;10.80;99.90
19138;DHT22;68178;52.188;5.598;2023-04-16T08:18:34;10.80;99.90
19138;DHT22;68178;52.188;5.598;2023-04-16T08:20:59;10.90;99.90
19138;DHT22;68178;52.188;5.598;2023-04-16T08:23:25;11.00;99.90
19138;DHT22;68178;52.188;5.598;2023-04-16T08:25:51;11.00;99.90
19138;DHT22;68178;52.188;5.598;2023-04-16T08:28:16;10.90;99.90
19138;DHT22;68178;52.188;5.598;2023-04-16T08:30:42;11.00;99.90
19138;DHT22;68178;52.188;5.598;2023-04-16T08:33:10;10.90;99.90
19138;DHT22;68178;52.188;5.598;2023-04-16T08:35:35;10.90;99.90
19138;DHT22;68178;52.188;5.598;2023-04-16T08:38:02;11.00;99.90
19138;DHT22;68178;52.188;5.598;2023-04-16T08:40:29;11.00;99.90
19138;DHT22;68178;52.188;5.598;2023-04-16T08:42:58;11.00;99.90
19138;DHT22;68178;52.188;5.598;2023-04-16T08:45:25;11.00;99.90
19138;DHT22;68178;52.188;5.598;2023-04-16T08:47:52;11.00;99.90
19138;DHT22;68178;52.188;5.598;2023-04-16T08:50:27;11.20;99.90
19138;DHT22;68178;52.188;5.598;2023-04-16T08:53:03;11.10;99.90
19138;DHT22;68178;52.188;5.598;2023-04-16T08:57:59;11.10;99.90
19138;DHT22;68178;52.188;5.598;2023-04-16T09:00:25;11.10;99.90
19138;DHT22;68178;52.188;5.598;2023-04-16T09:02:52;11.20;99.90
19138;DHT22;68178;52.188;5.598;2023-04-16T09:05:18;11.20;99.90
19138;DHT22;68178;52.188;5.598;2023-04-16T09:07:46;11.30;99.90
19138;DHT22;68178;52.188;5.598;2023-04-16T09:10:14;11.30;99.90
19138;DHT22;68178;52.188;5.598;2023-04-16T09:12:43;11.30;99.90
19138;DHT22;68178;52.188;5.598;2023-04-16T09:15:12;11.50;99.90
19138;DHT22;68178;52.188;5.598;2023-04-16T09:17:38;11.70;99.90
19138;DHT22;68178;52.188;5.598;2023-04-16T09:20:05;11.70;99.90
19138;DHT22;68178;52.188;5.598;2023-04-16T09:22:33;11.80;99.90
19138;DHT22;68178;52.188;5.598;2023-04-16T09:24:59;11.80;99.90
19138;DHT22;68178;52.188;5.598;2023-04-16T09:27:24;11.80;99.90
19138;DHT22;68178;52.188;5.598;2023-04-16T09:29:51;11.80;99.90
19138;DHT22;68178;52.188;5.598;2023-04-16T09:32:19;11.90;99.90
19138;DHT22;68178;52.188;5.598;2023-04-16T09:34:59;12.00;99.90
19138;DHT22;68178;52.188;5.598;2023-04-16T09:37:29;11.90;99.90
19138;DHT22;68178;52.188;5.598;2023-04-16T09:39:59;12.00;99.90
19138;DHT22;68178;52.188;5.598;2023-04-16T09:42:26;12.10;99.90
19138;DHT22;68178;52.188;5.598;2023-04-16T09:44:52;12.10;99.90
19138;DHT22;68178;52.188;5.598;2023-04-16T09:47:18;12.30;99.90
19138;DHT22;68178;52.188;5.598;2023-04-16T09:49:47;12.40;99.90
19138;DHT22;68178;52.188;5.598;2023-04-16T09:52:14;12.40;99.90
19138;DHT22;68178;52.188;5.598;2023-04-16T09:54:52;12.40;99.90
19138;DHT22;68178;52.188;5.598;2023-04-16T09:57:22;12.50;99.90
19138;DHT22;68178;52.188;5.598;2023-04-16T10:00:11;12.70;99.90
19138;DHT22;68178;52.188;5.598;2023-04-16T10:02:39;12.60;99.90
19138;DHT22;68178;52.188;5.598;2023-04-16T10:05:06;12.60;99.90
19138;DHT22;68178;52.188;5.598;2023-04-16T10:07:37;12.50;99.90
19138;DHT22;68178;52.188;5.598;2023-04-16T10:10:03;12.50;99.90
19138;DHT22;68178;52.188;5.598;2023-04-16T10:12:30;12.50;99.90
19138;DHT22;68178;52.188;5.598;2023-04-16T10:14:57;12.40;99.90
19138;DHT22;68178;52.188;5.598;2023-04-16T10:17:25;12.60;99.90
19138;DHT22;68178;52.188;5.598;2023-04-16T10:19:54;12.60;99.90
19138;DHT22;68178;52.188;5.598;2023-04-16T10:22:20;12.70;99.90
19138;DHT22;68178;52.188;5.598;2023-04-16T10:24:46;12.60;99.90
19138;DHT22;68178;52.188;5.598;2023-04-16T10:27:12;12.70;99.90
19138;DHT22;68178;52.188;5.598;2023-04-16T10:29:37;12.70;99.90
19138;DHT22;68178;52.188;5.598;2023-04-16T10:32:05;12.80;99.90
19138;DHT22;68178;52.188;5.598;2023-04-16T10:34:31;12.80;99.90
19138;DHT22;68178;52.188;5.598;2023-04-16T10:36:56;12.80;99.90
19138;DHT22;68178;52.188;5.598;2023-04-16T10:39:25;12.80;99.90
19138;DHT22;68178;52.188;5.598;2023-04-16T10:42:06;12.70;99.90
19138;DHT22;68178;52.188;5.598;2023-04-16T10:44:32;12.70;99.90
19138;DHT22;68178;52.188;5.598;2023-04-16T10:46:58;12.70;99.90
19138;DHT22;68178;52.188;5.598;2023-04-16T10:49:25;12.80;99.90
19138;DHT22;68178;52.188;5.598;2023-04-16T10:51:57;12.90;99.90
19138;DHT22;68178;52.188;5.598;2023-04-16T10:54:28;13.00;99.90
19138;DHT22;68178;52.188;5.598;2023-04-16T10:56:58;13.00;99.90
19138;DHT22;68178;52.188;5.598;2023-04-16T10:59:26;13.10;99.90
19138;DHT22;68178;52.188;5.598;2023-04-16T11:01:57;13.20;99.90
19138;DHT22;68178;52.188;5.598;2023-04-16T11:07:08;13.10;99.90
19138;DHT22;68178;52.188;5.598;2023-04-16T11:17:38;12.80;99.90
19138;DHT22;68178;52.188;5.598;2023-04-16T11:20:18;12.80;99.90
19138;DHT22;68178;52.188;5.598;2023-04-16T11:22:44;12.70;99.90
19138;DHT22;68178;52.188;5.598;2023-04-16T11:25:11;12.80;99.90
19138;DHT22;68178;52.188;5.598;2023-04-16T11:27:37;12.70;99.90
19138;DHT22;68178;52.188;5.598;2023-04-16T11:30:07;12.90;99.90
19138;DHT22;68178;52.188;5.598;2023-04-16T11:32:35;12.90;99.90
19138;DHT22;68178;52.188;5.598;2023-04-16T11:35:03;13.00;99.90
19138;DHT22;68178;52.188;5.598;2023-04-16T11:37:34;13.10;99.90
19138;DHT22;68178;52.188;5.598;2023-04-16T11:40:00;13.10;99.90
19138;DHT22;68178;52.188;5.598;2023-04-16T11:42:27;13.00;99.90
19138;DHT22;68178;52.188;5.598;2023-04-16T11:44:57;13.00;99.90
19138;DHT22;68178;52.188;5.598;2023-04-16T11:47:27;13.00;99.90
19138;DHT22;68178;52.188;5.598;2023-04-16T11:49:53;12.90;99.90
19138;DHT22;68178;52.188;5.598;2023-04-16T11:52:30;13.00;99.90
19138;DHT22;68178;52.188;5.598;2023-04-16T11:54:56;13.20;99.90
19138;DHT22;68178;52.188;5.598;2023-04-16T11:57:29;13.10;99.90
19138;DHT22;68178;52.188;5.598;2023-04-16T11:59:57;13.10;99.90
19138;DHT22;68178;52.188;5.598;2023-04-16T12:02:43;13.20;99.90
19138;DHT22;68178;52.188;5.598;2023-04-16T12:05:29;13.00;99.90
19138;DHT22;68178;52.188;5.598;2023-04-16T12:08:08;12.90;99.90
19138;DHT22;68178;52.188;5.598;2023-04-16T12:10:37;12.90;99.90
19138;DHT22;68178;52.188;5.598;2023-04-16T12:13:15;12.90;99.90
19138;DHT22;68178;52.188;5.598;2023-04-16T12:15:54;12.90;99.90
19138;DHT22;68178;52.188;5.598;2023-04-16T12:18:22;12.90;99.90
19138;DHT22;68178;52.188;5.598;2023-04-16T12:20:48;13.00;99.90
19138;DHT22;68178;52.188;5.598;2023-04-16T12:23:27;12.90;99.90
19138;DHT22;68178;52.188;5.598;2023-04-16T12:25:53;12.90;99.90
19138;DHT22;68178;52.188;5.598;2023-04-16T12:28:33;13.00;99.90
19138;DHT22;68178;52.188;5.598;2023-04-16T12:30:59;13.00;99.90
19138;DHT22;68178;52.188;5.598;2023-04-16T12:33:25;12.90;99.90
19138;DHT22;68178;52.188;5.598;2023-04-16T12:35:50;12.90;99.90
19138;DHT22;68178;52.188;5.598;2023-04-16T12:38:17;13.00;99.90
19138;DHT22;68178;52.188;5.598;2023-04-16T12:40:42;12.80;99.90
19138;DHT22;68178;52.188;5.598;2023-04-16T12:43:08;12.80;99.90
19138;DHT22;68178;52.188;5.598;2023-04-16T12:45:34;13.00;99.90
19138;DHT22;68178;52.188;5.598;2023-04-16T12:48:00;13.00;99.90
19138;DHT22;68178;52.188;5.598;2023-04-16T12:50:26;12.90;99.90
19138;DHT22;68178;52.188;5.598;2023-04-16T12:52:54;13.00;99.90
19138;DHT22;68178;52.188;5.598;2023-04-16T12:55:20;12.80;99.90
19138;DHT22;68178;52.188;5.598;2023-04-16T12:57:46;12.70;99.90
19138;DHT22;68178;52.188;5.598;2023-04-16T13:00:13;12.70;99.90
19138;DHT22;68178;52.188;5.598;2023-04-16T13:02:39;12.70;99.90
19138;DHT22;68178;52.188;5.598;2023-04-16T13:05:05;12.80;99.90
19138;DHT22;68178;52.188;5.598;2023-04-16T13:07:32;12.90;99.90
19138;DHT22;68178;52.188;5.598;2023-04-16T13:09:59;12.90;99.90
19138;DHT22;68178;52.188;5.598;2023-04-16T13:12:24;12.90;99.90
19138;DHT22;68178;52.188;5.598;2023-04-16T13:14:51;13.00;99.90
19138;DHT22;68178;52.188;5.598;2023-04-16T13:17:17;13.10;99.90
19138;DHT22;68178;52.188;5.598;2023-04-16T13:19:42;13.00;99.90
19138;DHT22;68178;52.188;5.598;2023-04-16T13:22:08;12.90;99.90
19138;DHT22;68178;52.188;5.598;2023-04-16T13:24:34;12.80;99.90
19138;DHT22;68178;52.188;5.598;2023-04-16T13:26:59;12.80;99.90
19138;DHT22;68178;52.188;5.598;2023-04-16T13:29:25;12.80;99.90
19138;DHT22;68178;52.188;5.598;2023-04-16T13:31:51;13.00;99.90
19138;DHT22;68178;52.188;5.598;2023-04-16T13:34:17;13.00;99.90
19138;DHT22;68178;52.188;5.598;2023-04-16T13:36:42;13.00;99.90
19138;DHT22;68178;52.188;5.598;2023-04-16T13:39:08;13.20;99.90
19138;DHT22;68178;52.188;5.598;2023-04-16T13:41:37;13.20;99.90
19138;DHT22;68178;52.188;5.598;2023-04-16T13:44:04;13.10;99.90
19138;DHT22;68178;52.188;5.598;2023-04-16T13:46:30;13.20;99.90
19138;DHT22;68178;52.188;5.598;2023-04-16T13:48:55;13.30;99.90
19138;DHT22;68178;52.188;5.598;2023-04-16T13:51:21;13.20;99.90
19138;DHT22;68178;52.188;5.598;2023-04-16T13:53:47;13.30;99.90
19138;DHT22;68178;52.188;5.598;2023-04-16T13:56:12;13.30;99.90
19138;DHT22;68178;52.188;5.598;2023-04-16T13:58:38;13.20;99.90
19138;DHT22;68178;52.188;5.598;2023-04-16T14:01:04;13.10;99.90
19138;DHT22;68178;52.188;5.598;2023-04-16T14:03:29;13.10;99.90
19138;DHT22;68178;52.188;5.598;2023-04-16T14:05:56;13.30;99.90
19138;DHT22;68178;52.188;5.598;2023-04-16T14:08:22;13.20;99.90
19138;DHT22;68178;52.188;5.598;2023-04-16T14:10:47;13.30;99.90
19138;DHT22;68178;52.188;5.598;2023-04-16T14:13:13;13.40;99.90
19138;DHT22;68178;52.188;5.598;2023-04-16T14:15:39;13.20;99.90
19138;DHT22;68178;52.188;5.598;2023-04-16T14:18:05;13.20;99.90
19138;DHT22;68178;52.188;5.598;2023-04-16T14:20:30;13.30;99.90
19138;DHT22;68178;52.188;5.598;2023-04-16T14:22:56;13.40;99.90
19138;DHT22;68178;52.188;5.598;2023-04-16T14:25:22;13.60;99.90
19138;DHT22;68178;52.188;5.598;2023-04-16T14:27:48;13.60;99.90
19138;DHT22;68178;52.188;5.598;2023-04-16T14:30:14;13.80;99.90
19138;DHT22;68178;52.188;5.598;2023-04-16T14:32:40;14.10;99.90
19138;DHT22;68178;52.188;5.598;2023-04-16T14:35:06;14.50;99.90
19138;DHT22;68178;52.188;5.598;2023-04-16T14:37:32;14.90;99.90
19138;DHT22;68178;52.188;5.598;2023-04-16T14:40:00;15.40;99.90
19138;DHT22;68178;52.188;5.598;2023-04-16T14:42:26;15.80;99.90
19138;DHT22;68178;52.188;5.598;2023-04-16T14:44:52;15.60;99.90
19138;DHT22;68178;52.188;5.598;2023-04-16T14:47:17;15.50;99.90
19138;DHT22;68178;52.188;5.598;2023-04-16T14:49:43;15.30;99.90
19138;DHT22;68178;52.188;5.598;2023-04-16T14:52:09;14.90;99.90
19138;DHT22;68178;52.188;5.598;2023-04-16T14:54:35;14.60;99.90
19138;DHT22;68178;52.188;5.598;2023-04-16T14:57:00;14.40;99.90
19138;DHT22;68178;52.188;5.598;2023-04-16T14:59:26;14.40;99.90
19138;DHT22;68178;52.188;5.598;2023-04-16T15:01:53;14.40;99.90
19138;DHT22;68178;52.188;5.598;2023-04-16T15:04:19;14.50;99.90
19138;DHT22;68178;52.188;5.598;2023-04-16T15:06:44;14.50;99.90
19138;DHT22;68178;52.188;5.598;2023-04-16T15:09:10;14.50;99.90
19138;DHT22;68178;52.188;5.598;2023-04-16T15:11:35;14.70;99.90
19138;DHT22;68178;52.188;5.598;2023-04-16T15:14:01;14.60;99.90
19138;DHT22;68178;52.188;5.598;2023-04-16T15:16:26;14.60;99.90
19138;DHT22;68178;52.188;5.598;2023-04-16T15:18:52;14.40;99.90
19138;DHT22;68178;52.188;5.598;2023-04-16T15:21:18;14.10;99.90
19138;DHT22;68178;52.188;5.598;2023-04-16T15:23:43;13.80;99.90
19138;DHT22;68178;52.188;5.598;2023-04-16T15:26:09;13.70;99.90
19138;DHT22;68178;52.188;5.598;2023-04-16T15:28:34;13.80;99.90
19138;DHT22;68178;52.188;5.598;2023-04-16T15:31:00;13.70;99.90
19138;DHT22;68178;52.188;5.598;2023-04-16T15:33:25;13.60;99.90
19138;DHT22;68178;52.188;5.598;2023-04-16T15:35:51;13.70;99.90
19138;DHT22;68178;52.188;5.598;2023-04-16T15:38:17;13.70;99.90
19138;DHT22;68178;52.188;5.598;2023-04-16T15:40:43;13.70;99.90
19138;DHT22;68178;52.188;5.598;2023-04-16T15:43:08;13.70;99.90
19138;DHT22;68178;52.188;5.598;2023-04-16T15:45:34;13.60;99.90